createdAt,value
2022-09-26T00:01:37.717Z,98032.13
2022-09-26T00:04:08.291Z,98035.69
2022-09-26T00:06:35.733Z,98038.41
2022-09-26T00:09:18.118Z,98043.69
2022-09-26T00:11:45.302Z,98045.44
2022-09-26T00:14:18.801Z,98044.66
2022-09-26T00:16:47.157Z,98039.56
2022-09-26T00:19:14.484Z,98037.97
2022-09-26T00:21:43.393Z,98034.50
2022-09-26T00:24:11.330Z,98035.38
2022-09-26T00:26:38.534Z,98033.63
2022-09-26T00:29:08.971Z,98030.31
2022-09-26T00:31:40.829Z,98029.63
2022-09-26T00:34:07.877Z,98029.66
2022-09-26T00:36:38.366Z,98025.53
2022-09-26T00:39:07.987Z,98030.13
2022-09-26T00:41:36.301Z,98020.72
2022-09-26T00:44:42.771Z,98005.84
2022-09-26T00:47:23.500Z,98002.41
2022-09-26T00:49:56.350Z,97999.63
2022-09-26T00:52:31.067Z,97997.16
2022-09-26T00:55:02.446Z,97998.09
2022-09-26T00:57:36.421Z,97996.50
2022-09-26T01:00:09.050Z,97997.47
2022-09-26T01:02:37.186Z,97998.56
2022-09-26T01:05:06.228Z,97991.66
2022-09-26T01:07:33.885Z,97984.69
2022-09-26T01:10:05.008Z,97981.31
2022-09-26T01:12:32.112Z,97984.00
2022-09-26T01:15:01.606Z,97972.53
2022-09-26T01:17:30.747Z,97974.31
2022-09-26T01:20:30.941Z,97972.53
2022-09-26T01:23:20.412Z,97969.88
2022-09-26T01:26:18.273Z,97955.94
2022-09-26T01:28:53.113Z,97956.03
2022-09-26T01:31:41.730Z,97957.13
2022-09-26T01:34:42.117Z,97959.88
2022-09-26T01:37:10.763Z,97965.91
2022-09-26T01:39:55.458Z,97963.97
2022-09-26T01:43:08.244Z,97962.22
2022-09-26T01:45:58.542Z,97961.50
2022-09-26T01:48:32.436Z,97945.66
2022-09-26T01:51:10.091Z,97950.88
2022-09-26T01:53:47.120Z,97946.66
2022-09-26T01:56:18.703Z,97940.63
2022-09-26T01:58:58.670Z,97937.97
2022-09-26T02:01:34.268Z,97935.47
2022-09-26T02:04:09.600Z,97942.47
2022-09-26T02:06:48.153Z,97928.38
2022-09-26T02:09:26.174Z,97924.78
2022-09-26T02:12:04.052Z,97923.13
2022-09-26T02:14:37.449Z,97921.44
2022-09-26T02:17:11.782Z,97917.94
2022-09-26T02:19:59.766Z,97910.09
2022-09-26T02:22:31.867Z,97909.03
2022-09-26T02:25:00.806Z,97914.16
2022-09-26T02:27:29.463Z,97904.63
2022-09-26T02:29:59.441Z,97898.53
2022-09-26T02:32:29.875Z,97901.00
2022-09-26T02:34:58.386Z,97902.66
2022-09-26T02:37:28.740Z,97903.38
2022-09-26T02:39:56.855Z,97899.69
2022-09-26T02:42:40.205Z,97896.97
2022-09-26T02:45:37.396Z,97905.56
2022-09-26T02:48:23.860Z,97892.16
2022-09-26T02:51:08.252Z,97883.22
2022-09-26T02:54:14.170Z,97869.22
2022-09-26T02:56:58.703Z,97876.59
2022-09-26T02:59:57.720Z,97870.25
2022-09-26T03:02:46.796Z,97871.09
2022-09-26T03:05:23.698Z,97870.97
2022-09-26T03:08:18.592Z,97859.50
2022-09-26T03:10:49.220Z,97864.75
2022-09-26T03:13:19.083Z,97859.34
2022-09-26T03:15:56.608Z,97862.75
2022-09-26T03:18:37.747Z,97855.44
2022-09-26T03:21:04.914Z,97859.69
2022-09-26T03:23:31.730Z,97855.31
2022-09-26T03:26:18.939Z,97848.16
2022-09-26T03:28:58.022Z,97847.16
2022-09-26T03:31:28.306Z,97843.59
2022-09-26T03:34:06.607Z,97827.88
2022-09-26T03:36:34.173Z,97831.53
2022-09-26T03:39:05.034Z,97822.84
2022-09-26T03:41:39.481Z,97813.19
2022-09-26T03:44:26.633Z,97819.41
2022-09-26T03:47:11.708Z,97816.66
2022-09-26T03:49:41.723Z,97816.59
2022-09-26T03:52:12.979Z,97812.19
2022-09-26T03:54:41.920Z,97812.19
2022-09-26T03:57:15.389Z,97804.06
2022-09-26T03:59:48.367Z,97798.78
2022-09-26T04:02:17.149Z,97798.75
2022-09-26T04:04:49.267Z,97802.28
2022-09-26T04:07:20.225Z,97792.59
2022-09-26T04:09:49.370Z,97795.38
2022-09-26T04:12:17.274Z,97786.56
2022-09-26T04:14:44.377Z,97790.81
2022-09-26T04:17:13.418Z,97790.69
2022-09-26T04:19:45.496Z,97787.19
2022-09-26T04:22:12.629Z,97774.84
2022-09-26T04:24:39.519Z,97770.66
2022-09-26T04:27:13.283Z,97773.53
2022-09-26T04:29:54.442Z,97765.75
2022-09-26T04:32:30.729Z,97757.31
2022-09-26T04:35:36.102Z,97763.69
2022-09-26T04:38:04.596Z,97762.03
2022-09-26T04:40:34.696Z,97756.69
2022-09-26T04:43:06.887Z,97755.13
2022-09-26T04:45:33.640Z,97750.00
2022-09-26T04:48:01.705Z,97736.13
2022-09-26T04:50:44.725Z,97742.06
2022-09-26T04:53:12.249Z,97740.56
2022-09-26T04:55:54.757Z,97742.44
2022-09-26T04:58:22.755Z,97729.31
2022-09-26T05:00:50.896Z,97736.47
2022-09-26T05:03:29.365Z,97733.72
2022-09-26T05:05:56.667Z,97729.22
2022-09-26T05:08:23.726Z,97729.41
2022-09-26T05:10:57.699Z,97719.81
2022-09-26T05:13:26.190Z,97713.78
2022-09-26T05:15:55.306Z,97721.69
2022-09-26T05:18:29.187Z,97715.44
2022-09-26T05:20:57.925Z,97717.09
2022-09-26T05:23:45.394Z,97717.88
2022-09-26T05:26:26.159Z,97709.03
2022-09-26T05:29:17.053Z,97704.50
2022-09-26T05:31:56.659Z,97694.47
2022-09-26T05:34:26.369Z,97709.28
2022-09-26T05:36:56.728Z,97707.34
2022-09-26T05:39:44.576Z,97706.47
2022-09-26T05:42:12.934Z,97707.94
2022-09-26T05:44:43.657Z,97703.06
2022-09-26T05:47:11.602Z,97695.00
2022-09-26T05:49:38.450Z,97701.25
2022-09-26T05:52:08.699Z,97703.56
2022-09-26T05:54:39.557Z,97702.31
2022-09-26T05:57:26.215Z,97705.88
2022-09-26T05:59:59.509Z,97692.38
2022-09-26T06:02:46.605Z,97689.13
2022-09-26T06:05:26.476Z,97686.44
2022-09-26T06:08:12.139Z,97675.31
2022-09-26T06:10:44.405Z,97678.44
2022-09-26T06:13:15.288Z,97681.03
2022-09-26T06:15:50.799Z,97671.03
2022-09-26T06:18:17.776Z,97673.03
2022-09-26T06:20:47.056Z,97665.81
2022-09-26T06:23:14.587Z,97653.06
2022-09-26T06:25:45.019Z,97651.56
2022-09-26T06:28:13.348Z,97642.28
2022-09-26T06:30:40.097Z,97637.63
2022-09-26T06:33:17.335Z,97638.63
2022-09-26T06:36:00.634Z,97634.38
2022-09-26T06:38:33.570Z,97629.84
2022-09-26T06:41:00.415Z,97633.94
2022-09-26T06:43:27.763Z,97631.25
2022-09-26T06:46:15.995Z,97636.03
2022-09-26T06:48:55.213Z,97634.13
2022-09-26T06:51:40.808Z,97633.50
2022-09-26T06:54:08.585Z,97624.38
2022-09-26T06:56:38.764Z,97625.25
2022-09-26T06:59:05.640Z,97627.09
2022-09-26T07:01:35.432Z,97632.47
2022-09-26T07:04:20.931Z,97635.06
2022-09-26T07:07:02.707Z,97632.44
2022-09-26T07:09:33.563Z,97637.09
2022-09-26T07:12:15.737Z,97631.66
2022-09-26T07:14:48.890Z,97630.66
2022-09-26T07:17:30.870Z,97619.41
2022-09-26T07:20:18.553Z,97620.91
2022-09-26T07:23:10.855Z,97622.66
2022-09-26T07:25:39.817Z,97625.19
2022-09-26T07:28:41.807Z,97616.09
2022-09-26T07:31:17.765Z,97617.94
2022-09-26T07:34:05.619Z,97614.06
2022-09-26T07:36:32.295Z,97605.47
2022-09-26T07:39:01.146Z,97590.69
2022-09-26T07:41:31.139Z,97602.94
2022-09-26T07:47:07.724Z,97586.56
2022-09-26T07:49:54.818Z,97586.91
2022-09-26T07:52:43.748Z,97583.91
2022-09-26T07:55:26.248Z,97593.44
2022-09-26T07:58:01.947Z,97598.31
2022-09-26T08:01:15.041Z,97606.97
2022-09-26T08:04:11.252Z,97608.00
2022-09-26T08:06:40.094Z,97610.34
2022-09-26T08:09:08.844Z,97607.44
2022-09-26T08:11:55.786Z,97596.34
2022-09-26T08:14:36.421Z,97596.84
2022-09-26T08:17:19.880Z,97586.53
2022-09-26T08:19:47.312Z,97588.63
2022-09-26T08:22:14.584Z,97584.84
2022-09-26T08:24:46.193Z,97582.94
2022-09-26T08:27:18.328Z,97584.78
2022-09-26T08:29:51.164Z,97557.13
2022-09-26T08:32:21.312Z,97531.97
2022-09-26T08:34:52.532Z,97511.41
2022-09-26T08:37:33.130Z,97514.91
2022-09-26T08:40:28.680Z,97512.41
2022-09-26T08:43:56.215Z,97496.63
2022-09-26T08:47:17.755Z,97492.97
2022-09-26T08:50:28.388Z,97495.97
2022-09-26T08:53:01.915Z,97493.06
2022-09-26T08:55:37.283Z,97487.06
2022-09-26T08:58:29.109Z,97498.03
2022-09-26T09:01:05.075Z,97498.16
2022-09-26T09:03:55.883Z,97494.19
2022-09-26T09:06:26.969Z,97490.31
2022-09-26T09:09:01.715Z,97483.13
2022-09-26T09:11:53.720Z,97464.50
2022-09-26T09:14:57.916Z,97469.56
2022-09-26T09:17:55.643Z,97448.22
2022-09-26T09:20:52.119Z,97477.88
2022-09-26T09:23:45.093Z,97483.22
2022-09-26T09:29:25.371Z,97488.38
2022-09-26T09:32:18.940Z,97489.69
2022-09-26T09:35:18.896Z,97486.44
2022-09-26T09:38:24.391Z,97495.78
2022-09-26T09:41:38.816Z,97490.19
2022-09-26T09:44:34.076Z,97488.50
2022-09-26T09:47:11.152Z,97497.44
2022-09-26T09:49:38.027Z,97485.22
2022-09-26T09:52:29.501Z,97481.69
2022-09-26T09:55:08.844Z,97476.81
2022-09-26T09:58:09.963Z,97475.06
2022-09-26T10:01:39.074Z,97464.38
2022-09-26T10:04:37.431Z,97456.97
2022-09-26T10:07:05.466Z,97452.53
2022-09-26T10:09:41.862Z,97446.72
2022-09-26T10:12:32.889Z,97450.84
2022-09-26T10:15:20.762Z,97452.88
2022-09-26T10:18:26.794Z,97440.50
2022-09-26T10:21:17.841Z,97445.72
2022-09-26T10:23:50.353Z,97452.97
2022-09-26T10:26:39.290Z,97443.84
2022-09-26T10:29:24.964Z,97428.31
2022-09-26T10:31:57.269Z,97429.13
2022-09-26T10:34:24.082Z,97427.84
2022-09-26T10:36:50.792Z,97422.88
2022-09-26T10:39:48.988Z,97424.13
2022-09-26T10:42:22.872Z,97420.50
2022-09-26T10:44:57.514Z,97420.44
2022-09-26T10:48:06.140Z,97427.13
2022-09-26T10:51:02.799Z,97431.34
2022-09-26T10:53:40.340Z,97436.84
2022-09-26T10:56:11.974Z,97433.69
2022-09-26T10:58:42.634Z,97432.81
2022-09-26T11:01:26.418Z,97433.94
2022-09-26T11:03:56.390Z,97432.00
2022-09-26T11:06:35.906Z,97427.50
2022-09-26T11:09:11.883Z,97416.47
2022-09-26T11:11:58.631Z,97418.81
2022-09-26T11:14:31.176Z,97415.13
2022-09-26T11:17:03.255Z,97414.44
2022-09-26T11:19:54.981Z,97401.97
2022-09-26T11:22:37.350Z,97401.34
2022-09-26T11:25:25.933Z,97405.78
2022-09-26T11:31:22.822Z,97395.56
2022-09-26T11:37:31.606Z,97381.03
2022-09-26T11:40:10.038Z,97376.38
2022-09-26T11:42:56.779Z,97376.06
2022-09-26T11:45:40.827Z,97369.56
2022-09-26T11:48:52.813Z,97374.56
2022-09-26T11:52:03.441Z,97376.91
2022-09-26T11:54:40.197Z,97377.91
2022-09-26T11:57:31.925Z,97374.00
2022-09-26T12:00:15.668Z,97373.75
2022-09-26T12:03:29.861Z,97355.81
2022-09-26T12:06:02.693Z,97354.44
2022-09-26T12:09:00.539Z,97350.47
2022-09-26T12:12:05.922Z,97335.84
2022-09-26T12:14:36.037Z,97307.69
2022-09-26T12:17:18.771Z,97308.13
2022-09-26T12:20:01.040Z,97297.84
2022-09-26T12:22:47.986Z,97287.97
2022-09-26T12:25:26.906Z,97287.50
2022-09-26T12:28:03.403Z,97273.63
2022-09-26T12:30:37.668Z,97274.81
2022-09-26T12:33:29.615Z,97260.66
2022-09-26T12:36:08.988Z,97259.56
2022-09-26T12:38:44.791Z,97258.25
2022-09-26T12:41:23.210Z,97255.16
2022-09-26T12:44:08.680Z,97267.69
2022-09-26T12:46:38.015Z,97250.91
2022-09-26T12:49:07.485Z,97250.56
2022-09-26T12:51:59.005Z,97235.38
2022-09-26T12:54:44.160Z,97237.50
2022-09-26T12:57:29.347Z,97235.44
2022-09-26T13:00:17.142Z,97222.97
2022-09-26T13:02:56.622Z,97198.72
2022-09-26T13:05:50.903Z,97205.31
2022-09-26T13:09:01.492Z,97199.25
2022-09-26T13:11:37.041Z,97201.09
2022-09-26T13:14:10.665Z,97196.63
2022-09-26T13:17:13.465Z,97189.47
2022-09-26T13:19:51.627Z,97190.16
2022-09-26T13:22:32.900Z,97176.34
2022-09-26T13:25:07.922Z,97180.66
2022-09-26T13:27:41.137Z,97169.94
2022-09-26T13:30:13.952Z,97176.41
2022-09-26T13:32:47.579Z,97171.19
2022-09-26T13:35:22.200Z,97164.38
2022-09-26T13:38:10.103Z,97169.75
2022-09-26T13:40:55.110Z,97160.72
2022-09-26T13:43:34.631Z,97169.53
2022-09-26T13:46:06.378Z,97149.81
2022-09-26T13:48:50.129Z,97152.13
2022-09-26T13:51:18.411Z,97153.66
2022-09-26T13:53:55.900Z,97152.97
2022-09-26T13:56:34.921Z,97153.88
2022-09-26T13:59:08.246Z,97150.19
2022-09-26T14:01:36.385Z,97140.50
2022-09-26T14:04:32.351Z,97138.22
2022-09-26T14:07:38.483Z,97128.38
2022-09-26T14:10:18.131Z,97131.53
2022-09-26T14:13:08.094Z,97121.22
2022-09-26T14:15:46.978Z,97118.00
2022-09-26T14:18:47.174Z,97108.44
2022-09-26T14:21:16.680Z,97105.91
2022-09-26T14:23:44.536Z,97114.41
2022-09-26T14:26:26.347Z,97108.94
2022-09-26T14:28:55.580Z,97102.72
2022-09-26T14:31:24.978Z,97096.03
2022-09-26T14:34:24.953Z,97098.91
2022-09-26T14:36:53.479Z,97097.59
2022-09-26T14:39:28.337Z,97101.31
2022-09-26T14:41:56.202Z,97094.63
2022-09-26T14:44:23.433Z,97086.56
2022-09-26T14:46:53.335Z,97087.97
2022-09-26T14:49:24.397Z,97086.81
2022-09-26T14:51:59.356Z,97083.63
2022-09-26T14:54:39.746Z,97072.41
2022-09-26T14:57:20.621Z,97072.94
2022-09-26T14:59:48.271Z,97067.47
2022-09-26T15:02:25.788Z,97065.03
2022-09-26T15:05:06.590Z,97065.22
2022-09-26T15:07:40.903Z,97065.03
2022-09-26T15:10:21.639Z,97064.47
2022-09-26T15:12:56.572Z,97064.81
2022-09-26T15:15:39.138Z,97075.28
2022-09-26T15:18:27.852Z,97067.59
2022-09-26T15:21:04.627Z,97066.66
2022-09-26T15:23:34.153Z,97077.59
2022-09-26T15:26:02.730Z,97072.13
2022-09-26T15:28:34.618Z,97064.63
2022-09-26T15:31:22.422Z,97078.03
2022-09-26T15:34:11.256Z,97075.63
2022-09-26T15:36:39.905Z,97084.50
2022-09-26T15:39:26.576Z,97083.28
2022-09-26T15:42:11.939Z,97089.94
2022-09-26T15:44:48.240Z,97084.00
2022-09-26T15:47:30.075Z,97090.25
2022-09-26T15:50:14.728Z,97079.41
2022-09-26T15:52:49.856Z,97079.84
2022-09-26T15:55:23.845Z,97078.53
2022-09-26T15:57:53.248Z,97079.66
2022-09-26T16:00:20.241Z,97085.19
2022-09-26T16:02:47.263Z,97077.00
2022-09-26T16:05:14.725Z,97067.88
2022-09-26T16:07:48.693Z,97068.41
2022-09-26T16:10:24.104Z,97076.13
2022-09-26T16:12:51.076Z,97065.47
2022-09-26T16:15:20.763Z,97060.97
2022-09-26T16:17:57.977Z,97056.56
2022-09-26T16:20:26.857Z,97057.25
2022-09-26T16:23:05.547Z,97050.56
2022-09-26T16:25:47.719Z,97028.47
2022-09-26T16:28:18.027Z,97027.06
2022-09-26T16:30:53.423Z,97028.97
2022-09-26T16:33:26.262Z,97024.81
2022-09-26T16:35:53.262Z,97025.56
2022-09-26T16:38:31.123Z,97018.72
2022-09-26T16:41:08.423Z,97016.94
2022-09-26T16:43:37.516Z,97011.16
2022-09-26T16:46:13.451Z,97017.31
2022-09-26T16:48:53.945Z,97010.44
2022-09-26T16:51:24.149Z,97010.16
2022-09-26T16:54:09.122Z,97016.13
2022-09-26T16:56:40.335Z,97000.81
2022-09-26T16:59:21.451Z,97001.38
2022-09-26T17:01:55.685Z,96996.84
2022-09-26T17:04:32.738Z,96990.63
2022-09-26T17:07:01.557Z,96994.63
2022-09-26T17:09:32.685Z,96988.50
2022-09-26T17:12:06.370Z,96986.41
2022-09-26T17:14:40.791Z,96981.84
2022-09-26T17:17:16.194Z,96971.06
2022-09-26T17:19:45.247Z,96979.75
2022-09-26T17:22:18.400Z,96979.50
2022-09-26T17:24:47.167Z,96980.44
2022-09-26T17:27:22.641Z,96969.22
2022-09-26T17:29:51.468Z,96969.22
2022-09-26T17:32:23.598Z,96964.84
2022-09-26T17:34:51.584Z,96961.16
2022-09-26T17:37:20.446Z,96958.63
2022-09-26T17:39:47.267Z,96959.19
2022-09-26T17:42:17.076Z,96967.44
2022-09-26T17:44:47.590Z,96956.28
2022-09-26T17:47:16.046Z,96948.59
2022-09-26T17:49:48.698Z,96951.50
2022-09-26T17:52:29.081Z,96948.59
2022-09-26T17:54:58.555Z,96944.84
2022-09-26T17:57:29.927Z,96939.78
2022-09-26T17:59:57.631Z,96945.78
2022-09-26T18:02:31.589Z,96936.44
2022-09-26T18:05:03.181Z,96936.28
2022-09-26T18:07:41.371Z,96933.09
2022-09-26T18:10:17.316Z,96925.59
2022-09-26T18:12:45.187Z,96925.41
2022-09-26T18:15:16.070Z,96926.03
2022-09-26T18:17:43.471Z,96928.69
2022-09-26T18:20:10.185Z,96918.88
2022-09-26T18:22:37.045Z,96919.34
2022-09-26T18:25:14.903Z,96914.72
2022-09-26T18:27:41.700Z,96913.28
2022-09-26T18:30:13.658Z,96910.13
2022-09-26T18:32:44.098Z,96910.81
2022-09-26T18:35:25.300Z,96900.13
2022-09-26T18:37:55.194Z,96899.81
2022-09-26T18:40:24.415Z,96897.72
2022-09-26T18:42:51.871Z,96893.69
2022-09-26T18:45:35.818Z,96891.06
2022-09-26T18:48:20.274Z,96895.75
2022-09-26T18:50:47.268Z,96893.59
2022-09-26T18:53:17.236Z,96891.66
2022-09-26T18:56:02.834Z,96886.84
2022-09-26T18:58:32.157Z,96884.50
2022-09-26T19:01:04.976Z,96884.41
2022-09-26T19:03:34.926Z,96869.81
2022-09-26T19:06:12.700Z,96880.88
2022-09-26T19:08:41.640Z,96876.78
2022-09-26T19:11:13.643Z,96883.38
2022-09-26T19:13:41.473Z,96879.97
2022-09-26T19:16:08.853Z,96877.72
2022-09-26T19:18:36.535Z,96861.34
2022-09-26T19:21:06.200Z,96868.47
2022-09-26T19:23:35.655Z,96864.97
2022-09-26T19:26:05.555Z,96875.28
2022-09-26T19:28:35.886Z,96871.84
2022-09-26T19:31:04.081Z,96865.53
2022-09-26T19:33:31.033Z,96857.94
2022-09-26T19:35:57.815Z,96856.63
2022-09-26T19:38:26.489Z,96861.00
2022-09-26T19:40:53.903Z,96858.84
2022-09-26T19:43:21.752Z,96853.56
2022-09-26T19:45:52.178Z,96859.22
2022-09-26T19:48:22.017Z,96852.06
2022-09-26T19:50:50.874Z,96843.56
2022-09-26T19:53:20.397Z,96840.88
2022-09-26T19:55:50.762Z,96833.22
2022-09-26T19:58:25.493Z,96840.72
2022-09-26T20:00:54.627Z,96823.06
2022-09-26T20:03:21.277Z,96821.59
2022-09-26T20:05:49.624Z,96834.09
2022-09-26T20:08:27.342Z,96832.25
2022-09-26T20:10:57.908Z,96823.97
2022-09-26T20:13:24.667Z,96822.06
2022-09-26T20:15:51.661Z,96823.63
2022-09-26T20:18:22.215Z,96816.63
2022-09-26T20:20:56.782Z,96811.16
2022-09-26T20:23:25.999Z,96812.16
2022-09-26T20:25:54.390Z,96810.00
2022-09-26T20:28:21.394Z,96808.03
2022-09-26T20:30:51.367Z,96803.59
2022-09-26T20:33:21.757Z,96801.13
2022-09-26T20:36:02.949Z,96791.50
2022-09-26T20:38:39.191Z,96797.84
2022-09-26T20:41:13.536Z,96791.38
2022-09-26T20:43:46.705Z,96794.19
2022-09-26T20:46:14.782Z,96785.56
2022-09-26T20:48:44.787Z,96779.03
2022-09-26T20:51:29.948Z,96778.03
2022-09-26T20:54:00.614Z,96775.78
2022-09-26T20:56:28.280Z,96776.66
2022-09-26T20:58:55.199Z,96770.03
2022-09-26T21:01:22.416Z,96774.13
2022-09-26T21:03:55.164Z,96766.16
2022-09-26T21:06:33.195Z,96760.13
2022-09-26T21:09:00.593Z,96773.28
2022-09-26T21:11:27.387Z,96751.94
2022-09-26T21:13:54.074Z,96758.22
2022-09-26T21:16:21.826Z,96752.50
2022-09-26T21:18:51.940Z,96761.44
2022-09-26T21:21:28.229Z,96749.53
2022-09-26T21:24:04.478Z,96747.53
2022-09-26T21:26:31.615Z,96746.25
2022-09-26T21:28:58.443Z,96746.00
2022-09-26T21:31:26.866Z,96750.13
2022-09-26T21:33:56.246Z,96746.13
2022-09-26T21:36:24.065Z,96738.84
2022-09-26T21:38:53.764Z,96738.75
2022-09-26T21:41:20.592Z,96750.34
2022-09-26T21:43:54.927Z,96752.28
2022-09-26T21:46:21.745Z,96743.44
2022-09-26T21:48:48.856Z,96735.84
2022-09-26T21:51:15.890Z,96732.78
2022-09-26T21:53:52.707Z,96724.75
2022-09-26T21:56:25.570Z,96730.63
2022-09-26T21:58:52.952Z,96716.53
2022-09-26T22:01:20.363Z,96715.16
2022-09-26T22:03:47.159Z,96711.16
2022-09-26T22:06:13.887Z,96715.84
2022-09-26T22:08:41.036Z,96710.13
2022-09-26T22:11:09.000Z,96707.81
2022-09-26T22:13:37.263Z,96699.63
2022-09-26T22:16:06.575Z,96701.94
2022-09-26T22:18:35.686Z,96703.97
2022-09-26T22:21:04.732Z,96700.13
2022-09-26T22:23:32.589Z,96701.00
2022-09-26T22:26:00.028Z,96699.53
2022-09-26T22:28:27.224Z,96702.72
2022-09-26T22:30:54.636Z,96698.53
2022-09-26T22:33:22.574Z,96692.94
2022-09-26T22:35:50.448Z,96692.13
2022-09-26T22:38:18.213Z,96691.22
2022-09-26T22:40:46.255Z,96692.09
2022-09-26T22:43:13.268Z,96689.00
2022-09-26T22:45:40.348Z,96695.59
2022-09-26T22:48:07.347Z,96707.06
2022-09-26T22:50:34.496Z,96710.72
2022-09-26T22:53:01.210Z,96707.72
2022-09-26T22:55:27.887Z,96709.59
2022-09-26T22:57:54.572Z,96720.13
2022-09-26T23:00:21.238Z,96717.09
2022-09-26T23:02:47.982Z,96716.88
2022-09-26T23:05:14.839Z,96714.81
2022-09-26T23:07:41.515Z,96707.63
2022-09-26T23:10:08.338Z,96711.63
2022-09-26T23:12:35.011Z,96714.47
2022-09-26T23:15:01.709Z,96706.56
2022-09-26T23:17:28.915Z,96712.56
2022-09-26T23:19:55.602Z,96710.44
2022-09-26T23:22:22.413Z,96709.09
2022-09-26T23:24:49.329Z,96708.97
2022-09-26T23:27:16.244Z,96713.22
2022-09-26T23:29:43.134Z,96704.78
2022-09-26T23:32:09.999Z,96705.56
2022-09-26T23:34:36.666Z,96710.50
2022-09-26T23:37:03.392Z,96695.16
2022-09-26T23:39:30.323Z,96702.94
2022-09-26T23:41:58.268Z,96699.78
2022-09-26T23:44:24.979Z,96694.66
2022-09-26T23:46:51.719Z,96697.94
2022-09-26T23:49:18.428Z,96699.00
2022-09-26T23:51:47.441Z,96700.97
2022-09-26T23:54:14.441Z,96702.25
2022-09-26T23:56:41.487Z,96702.84
2022-09-26T23:59:08.738Z,96696.53
